createdAt,value
2023-05-15T00:03:34.663Z,101240.86
2023-05-15T00:06:03.455Z,101234.43
2023-05-15T00:08:32.286Z,101234.96
2023-05-15T00:11:02.350Z,101235.34
2023-05-15T00:13:31.407Z,101233.91
2023-05-15T00:16:00.371Z,101226.77
2023-05-15T00:18:29.885Z,101226.94
2023-05-15T00:20:58.150Z,101223.71
2023-05-15T00:23:29.517Z,101218.89
2023-05-15T00:25:58.763Z,101213.70
2023-05-15T00:28:26.915Z,101206.91
2023-05-15T00:30:54.997Z,101201.54
2023-05-15T00:33:23.923Z,101199.73
2023-05-15T00:35:52.919Z,101198.50
2023-05-15T00:38:21.473Z,101197.26
2023-05-15T00:40:49.859Z,101197.07
2023-05-15T00:43:19.628Z,101194.93
2023-05-15T00:45:48.459Z,101198.70
2023-05-15T00:48:18.635Z,101200.13
2023-05-15T00:50:47.396Z,101201.91
2023-05-15T00:53:16.237Z,101200.66
2023-05-15T00:55:47.350Z,101202.45
2023-05-15T00:58:18.438Z,101202.10
2023-05-15T01:00:49.962Z,101201.92
2023-05-15T01:03:18.429Z,101202.64
2023-05-15T01:05:50.447Z,101197.64
2023-05-15T01:08:23.962Z,101196.21
2023-05-15T01:10:54.659Z,101197.11
2023-05-15T01:13:24.515Z,101197.82
2023-05-15T01:15:55.034Z,101195.68
2023-05-15T01:18:23.335Z,101196.40
2023-05-15T01:21:19.962Z,101190.15
2023-05-15T01:24:26.323Z,101190.88
2023-05-15T01:27:30.942Z,101188.00
2023-05-15T01:30:27.108Z,101183.89
2023-05-15T01:33:18.360Z,101177.29
2023-05-15T01:36:02.011Z,101175.14
2023-05-15T01:38:57.070Z,101174.24
2023-05-15T01:41:29.300Z,101173.70
2023-05-15T01:44:07.660Z,101172.46
2023-05-15T01:46:41.844Z,101167.81
2023-05-15T01:49:13.936Z,101162.64
2023-05-15T01:51:44.852Z,101158.52
2023-05-15T01:54:15.129Z,101159.95
2023-05-15T01:56:44.253Z,101162.45
2023-05-15T01:59:13.668Z,101162.27
2023-05-15T02:01:44.760Z,101160.48
2023-05-15T02:04:14.467Z,101162.27
2023-05-15T02:06:44.998Z,101161.20
2023-05-15T02:09:14.975Z,101161.20
2023-05-15T02:11:43.595Z,101158.17
2023-05-15T02:14:13.203Z,101152.80
2023-05-15T02:16:41.296Z,101148.15
2023-05-15T02:19:10.829Z,101143.88
2023-05-15T02:21:39.127Z,101141.88
2023-05-15T02:24:07.708Z,101133.48
2023-05-15T02:26:58.953Z,101131.70
2023-05-15T02:29:51.942Z,101132.80
2023-05-15T02:32:35.138Z,101131.35
2023-05-15T02:35:06.762Z,101129.73
2023-05-15T02:37:38.636Z,101129.19
2023-05-15T02:40:13.462Z,101129.54
2023-05-15T02:42:44.486Z,101129.54
2023-05-15T02:45:13.410Z,101123.28
2023-05-15T02:47:42.783Z,101123.46
2023-05-15T02:50:12.100Z,101118.64
2023-05-15T02:52:41.151Z,101110.95
2023-05-15T02:55:11.064Z,101107.93
2023-05-15T02:57:39.627Z,101104.00
2023-05-15T03:00:08.342Z,101102.74
2023-05-15T03:02:38.272Z,101102.92
2023-05-15T03:05:07.962Z,101103.09
2023-05-15T03:07:37.346Z,101099.34
2023-05-15T03:10:06.386Z,101100.41
2023-05-15T03:12:35.287Z,101097.02
2023-05-15T03:15:06.454Z,101100.25
2023-05-15T03:17:34.613Z,101098.27
2023-05-15T03:20:02.774Z,101099.17
2023-05-15T03:22:31.142Z,101095.96
2023-05-15T03:24:59.278Z,101093.63
2023-05-15T03:27:28.884Z,101089.35
2023-05-15T03:29:57.072Z,101086.66
2023-05-15T03:32:25.857Z,101088.09
2023-05-15T03:34:53.994Z,101093.27
2023-05-15T03:37:22.176Z,101091.47
2023-05-15T03:39:50.291Z,101087.20
2023-05-15T03:42:18.565Z,101085.59
2023-05-15T03:44:46.755Z,101082.73
2023-05-15T03:47:14.953Z,101080.94
2023-05-15T03:49:44.402Z,101077.91
2023-05-15T03:52:12.790Z,101074.86
2023-05-15T03:54:42.832Z,101073.09
2023-05-15T03:57:11.492Z,101072.17
2023-05-15T03:59:39.658Z,101069.88
2023-05-15T04:02:07.961Z,101070.23
2023-05-15T04:04:36.497Z,101069.14
2023-05-15T04:07:05.549Z,101068.61
2023-05-15T04:09:33.971Z,101067.72
2023-05-15T04:12:02.344Z,101069.85
2023-05-15T04:14:31.015Z,101067.54
2023-05-15T04:16:59.205Z,101068.05
2023-05-15T04:19:27.476Z,101069.83
2023-05-15T04:21:55.675Z,101073.23
2023-05-15T04:24:24.779Z,101070.37
2023-05-15T04:26:53.820Z,101069.64
2023-05-15T04:29:23.635Z,101069.47
2023-05-15T04:31:51.801Z,101073.21
2023-05-15T04:34:20.486Z,101073.20
2023-05-15T04:36:50.137Z,101074.10
2023-05-15T04:39:19.202Z,101069.25
2023-05-15T04:41:47.740Z,101069.06
2023-05-15T04:44:15.962Z,101072.09
2023-05-15T04:46:45.058Z,101068.88
2023-05-15T04:49:13.545Z,101068.16
2023-05-15T04:51:42.174Z,101068.33
2023-05-15T04:54:10.141Z,101068.52
2023-05-15T04:56:38.688Z,101068.14
2023-05-15T04:59:06.873Z,101066.18
2023-05-15T05:01:36.919Z,101065.63
2023-05-15T05:04:05.974Z,101069.55
2023-05-15T05:06:34.081Z,101075.25
2023-05-15T05:09:02.289Z,101075.07
2023-05-15T05:11:30.426Z,101070.60
2023-05-15T05:13:58.447Z,101070.24
2023-05-15T05:16:26.535Z,101066.86
2023-05-15T05:18:54.994Z,101067.04
2023-05-15T05:21:23.141Z,101069.18
2023-05-15T05:23:51.167Z,101073.45
2023-05-15T05:26:19.288Z,101074.87
2023-05-15T05:28:47.832Z,101077.52
2023-05-15T05:31:15.984Z,101078.77
2023-05-15T05:33:45.189Z,101082.89
2023-05-15T05:36:14.319Z,101087.33
2023-05-15T05:38:42.555Z,101091.44
2023-05-15T05:41:11.042Z,101095.35
2023-05-15T05:43:39.187Z,101100.52
2023-05-15T05:46:07.340Z,101101.44
2023-05-15T05:48:36.643Z,101098.06
2023-05-15T05:51:06.361Z,101100.22
2023-05-15T05:53:34.485Z,101098.80
2023-05-15T05:56:03.460Z,101101.85
2023-05-15T05:58:31.612Z,101098.81
2023-05-15T06:01:00.440Z,101099.19
2023-05-15T06:03:29.322Z,101099.38
2023-05-15T06:05:58.086Z,101099.40
2023-05-15T06:08:28.863Z,101097.96
2023-05-15T06:10:57.391Z,101094.77
2023-05-15T06:13:25.514Z,101093.20
2023-05-15T06:15:54.600Z,101094.82
2023-05-15T06:18:22.576Z,101095.37
2023-05-15T06:20:51.191Z,101088.23
2023-05-15T06:23:20.634Z,101093.06
2023-05-15T06:25:50.004Z,101095.92
2023-05-15T06:28:19.188Z,101093.27
2023-05-15T06:30:49.841Z,101095.77
2023-05-15T06:33:18.021Z,101092.38
2023-05-15T06:35:46.173Z,101088.45
2023-05-15T06:38:14.613Z,101091.85
2023-05-15T06:40:42.745Z,101089.17
2023-05-15T06:43:10.742Z,101084.87
2023-05-15T06:45:38.992Z,101081.31
2023-05-15T06:48:07.812Z,101078.27
2023-05-15T06:50:35.967Z,101079.15
2023-05-15T06:53:04.217Z,101080.38
2023-05-15T06:55:32.197Z,101075.34
2023-05-15T06:58:00.708Z,101078.70
2023-05-15T07:00:30.515Z,101071.51
2023-05-15T07:02:58.628Z,101074.88
2023-05-15T07:05:27.540Z,101070.17
2023-05-15T07:07:57.682Z,101071.92
2023-05-15T07:10:26.051Z,101075.11
2023-05-15T07:12:55.048Z,101069.15
2023-05-15T07:15:23.495Z,101067.12
2023-05-15T07:17:52.397Z,101070.10
2023-05-15T07:20:20.766Z,101066.61
2023-05-15T07:22:56.438Z,101063.30
2023-05-15T07:25:27.740Z,101061.61
2023-05-15T07:27:56.419Z,101062.05
2023-05-15T07:30:25.694Z,101056.27
2023-05-15T07:32:54.609Z,101057.08
2023-05-15T07:35:23.008Z,101057.16
2023-05-15T07:37:51.603Z,101057.23
2023-05-15T07:40:19.788Z,101060.38
2023-05-15T07:42:48.520Z,101061.70
2023-05-15T07:45:16.714Z,101057.63
2023-05-15T07:47:46.666Z,101056.44
2023-05-15T07:50:15.981Z,101052.60
2023-05-15T07:52:44.862Z,101059.77
2023-05-15T07:55:13.215Z,101056.52
2023-05-15T07:57:42.031Z,101056.23
2023-05-15T08:00:11.612Z,101062.96
2023-05-15T08:02:40.761Z,101058.55
2023-05-15T08:05:11.280Z,101056.28
2023-05-15T08:07:39.919Z,101054.15
2023-05-15T08:10:09.033Z,101057.71
2023-05-15T08:12:37.637Z,101059.37
2023-05-15T08:15:08.061Z,101060.83
2023-05-15T08:17:36.228Z,101058.15
2023-05-15T08:20:05.495Z,101056.95
2023-05-15T08:22:33.544Z,101053.02
2023-05-15T08:25:01.796Z,101052.13
2023-05-15T08:27:30.557Z,101053.02
2023-05-15T08:29:59.048Z,101051.19
2023-05-15T08:32:27.132Z,101044.88
2023-05-15T08:34:55.283Z,101038.89
2023-05-15T08:37:23.730Z,101038.71
2023-05-15T08:39:51.798Z,101036.02
2023-05-15T08:42:28.736Z,101038.84
2023-05-15T08:44:56.969Z,101041.64
2023-05-15T08:47:28.721Z,101034.46
2023-05-15T08:50:23.858Z,101029.33
2023-05-15T08:52:54.115Z,101028.30
2023-05-15T08:55:22.252Z,101022.91
2023-05-15T08:57:51.014Z,101028.46
2023-05-15T09:00:21.441Z,101022.64
2023-05-15T09:02:49.964Z,101021.52
2023-05-15T09:05:18.305Z,101023.92
2023-05-15T09:07:47.983Z,101019.59
2023-05-15T09:10:16.828Z,101022.94
2023-05-15T09:12:45.316Z,101023.14
2023-05-15T09:15:16.340Z,101021.47
2023-05-15T09:17:45.478Z,101019.52
2023-05-15T09:20:32.571Z,101014.70
2023-05-15T09:23:03.582Z,101017.92
2023-05-15T09:25:40.121Z,101014.48
2023-05-15T09:28:34.607Z,101010.70
2023-05-15T09:31:05.560Z,101012.79
2023-05-15T09:33:39.105Z,101010.05
2023-05-15T09:36:09.060Z,101011.52
2023-05-15T09:38:42.238Z,101010.98
2023-05-15T09:41:11.331Z,101008.05
2023-05-15T09:43:41.321Z,101009.96
2023-05-15T09:46:09.995Z,101009.36
2023-05-15T09:48:38.859Z,101004.80
2023-05-15T09:51:18.679Z,101002.42
2023-05-15T09:53:53.631Z,101001.35
2023-05-15T09:56:22.583Z,101003.92
2023-05-15T09:58:59.748Z,101002.03
2023-05-15T10:01:28.050Z,101004.23
2023-05-15T10:04:03.882Z,100992.73
2023-05-15T10:06:42.687Z,100992.15
2023-05-15T10:09:12.682Z,100995.75
2023-05-15T10:11:50.175Z,101000.96
2023-05-15T10:14:20.152Z,100999.92
2023-05-15T10:16:49.337Z,101001.68
2023-05-15T10:19:20.450Z,101005.86
2023-05-15T10:21:49.273Z,101007.29
2023-05-15T10:24:20.879Z,101008.62
2023-05-15T10:26:49.541Z,101012.45
2023-05-15T10:29:22.137Z,101021.36
2023-05-15T10:31:51.319Z,101015.42
2023-05-15T10:34:20.717Z,101011.47
2023-05-15T10:36:50.612Z,101012.16
2023-05-15T10:39:20.092Z,101013.24
2023-05-15T10:41:51.163Z,101013.72
2023-05-15T10:44:20.698Z,101014.77
2023-05-15T10:46:49.857Z,101019.98
2023-05-15T10:49:18.076Z,101011.52
2023-05-15T10:51:46.778Z,101011.89
2023-05-15T10:54:15.486Z,101015.80
2023-05-15T10:56:44.194Z,101015.26
2023-05-15T10:59:12.795Z,101016.46
2023-05-15T11:01:42.048Z,101011.88
2023-05-15T11:04:12.253Z,101009.42
2023-05-15T11:06:45.868Z,101009.77
2023-05-15T11:09:36.191Z,101005.93
2023-05-15T11:12:06.534Z,101003.60
2023-05-15T11:14:54.781Z,101009.55
2023-05-15T11:17:24.338Z,101007.39
2023-05-15T11:19:52.420Z,101011.09
2023-05-15T11:22:22.803Z,101002.55
2023-05-15T11:24:58.068Z,101008.31
2023-05-15T11:27:38.802Z,101002.64
2023-05-15T11:30:12.210Z,101000.88
2023-05-15T11:32:57.848Z,100997.32
2023-05-15T11:35:33.330Z,100991.92
2023-05-15T11:38:18.090Z,100987.31
2023-05-15T11:40:51.851Z,100983.05
2023-05-15T11:43:22.828Z,100985.20
2023-05-15T11:45:54.523Z,100980.77
2023-05-15T11:48:25.279Z,100984.66
2023-05-15T11:50:53.600Z,100979.34
2023-05-15T11:53:22.808Z,100974.50
2023-05-15T11:55:53.495Z,100975.74
2023-05-15T11:58:24.045Z,100977.67
2023-05-15T12:00:53.590Z,100978.81
2023-05-15T12:03:25.837Z,100979.67
2023-05-15T12:05:59.645Z,100986.08
2023-05-15T12:08:36.955Z,100993.16
2023-05-15T12:11:05.993Z,100992.15
2023-05-15T12:13:35.285Z,100991.86
2023-05-15T12:16:04.770Z,100992.45
2023-05-15T12:18:34.009Z,100984.05
2023-05-15T12:21:02.097Z,100978.70
2023-05-15T12:23:30.151Z,100981.54
2023-05-15T12:26:02.156Z,100982.66
2023-05-15T12:28:34.131Z,100984.38
2023-05-15T12:31:02.816Z,100986.39
2023-05-15T12:33:30.948Z,100983.82
2023-05-15T12:36:01.747Z,100978.33
2023-05-15T12:38:30.486Z,100979.13
2023-05-15T12:40:58.878Z,100979.27
2023-05-15T12:43:27.831Z,100984.64
2023-05-15T12:45:57.406Z,100982.64
2023-05-15T12:48:32.967Z,100982.23
2023-05-15T12:51:08.731Z,100976.55
2023-05-15T12:53:37.192Z,100970.30
2023-05-15T12:56:05.830Z,100971.04
2023-05-15T12:58:34.276Z,100970.42
2023-05-15T13:01:03.782Z,100974.33
2023-05-15T13:03:32.804Z,100977.73
2023-05-15T13:06:03.088Z,100976.11
2023-05-15T13:08:31.323Z,100978.75
2023-05-15T13:11:00.342Z,100975.61
2023-05-15T13:13:47.095Z,100975.50
2023-05-15T13:16:26.418Z,100979.17
2023-05-15T13:18:56.684Z,100978.49
2023-05-15T13:21:25.094Z,100981.89
2023-05-15T13:23:53.588Z,100975.46
2023-05-15T13:26:22.089Z,100975.58
2023-05-15T13:28:50.643Z,100973.97
2023-05-15T13:31:18.720Z,100973.08
2023-05-15T13:33:48.069Z,100966.72
2023-05-15T13:36:16.462Z,100967.97
2023-05-15T13:38:44.716Z,100972.30
2023-05-15T13:41:14.001Z,100973.17
2023-05-15T13:43:42.653Z,100976.91
2023-05-15T13:46:10.788Z,100971.73
2023-05-15T13:48:39.073Z,100967.54
2023-05-15T13:51:07.307Z,100971.42
2023-05-15T13:53:35.408Z,100974.04
2023-05-15T13:56:04.093Z,100975.77
2023-05-15T13:58:32.550Z,100972.04
2023-05-15T14:01:05.746Z,100970.17
2023-05-15T14:03:34.275Z,100964.58
2023-05-15T14:06:02.714Z,100959.46
2023-05-15T14:08:30.847Z,100961.17
2023-05-15T14:10:58.714Z,100956.86
2023-05-15T14:13:26.802Z,100958.30
2023-05-15T14:15:55.460Z,100953.17
2023-05-15T14:18:23.838Z,100947.24
2023-05-15T14:20:52.075Z,100937.83
2023-05-15T14:23:20.608Z,100932.16
2023-05-15T14:25:48.780Z,100931.46
2023-05-15T14:28:17.013Z,100930.73
2023-05-15T14:30:45.116Z,100925.50
2023-05-15T14:33:13.543Z,100921.84
2023-05-15T14:35:41.823Z,100921.63
2023-05-15T14:38:10.066Z,100916.59
2023-05-15T14:40:38.452Z,100918.41
2023-05-15T14:43:06.547Z,100914.77
2023-05-15T14:45:35.392Z,100911.30
2023-05-15T14:48:04.206Z,100911.09
2023-05-15T14:50:33.972Z,100910.16
2023-05-15T14:53:03.815Z,100906.61
2023-05-15T14:55:33.533Z,100904.32
2023-05-15T14:58:01.521Z,100897.10
2023-05-15T15:00:30.627Z,100900.83
2023-05-15T15:02:59.789Z,100902.61
2023-05-15T15:05:27.951Z,100902.38
2023-05-15T15:08:07.420Z,100909.11
2023-05-15T15:10:40.193Z,100914.63
2023-05-15T15:13:08.851Z,100918.73
2023-05-15T15:15:38.007Z,100917.83
2023-05-15T15:18:07.175Z,100911.98
2023-05-15T15:20:35.362Z,100919.80
2023-05-15T15:23:03.780Z,100916.73
2023-05-15T15:25:33.159Z,100924.08
2023-05-15T15:28:02.587Z,100928.21
2023-05-15T15:30:30.788Z,100926.29
2023-05-15T15:32:58.962Z,100929.98
2023-05-15T15:35:27.495Z,100929.45
2023-05-15T15:37:55.525Z,100928.44
2023-05-15T15:40:23.927Z,100930.91
2023-05-15T15:42:52.750Z,100929.77
2023-05-15T15:45:20.952Z,100931.56
2023-05-15T15:47:48.978Z,100937.90
2023-05-15T15:50:17.376Z,100939.36
2023-05-15T15:52:45.561Z,100953.08
2023-05-15T15:55:14.124Z,100965.05
2023-05-15T15:57:42.455Z,100966.26
2023-05-15T16:00:11.139Z,100962.46
2023-05-15T16:02:40.859Z,100957.85
2023-05-15T16:05:09.857Z,100961.33
2023-05-15T16:07:37.998Z,100956.45
2023-05-15T16:12:39.999Z,100956.58
2023-05-15T16:15:20.916Z,100949.95
2023-05-15T16:17:53.837Z,100956.20
2023-05-15T16:20:23.491Z,100961.49
2023-05-15T16:22:52.466Z,100955.55
2023-05-15T16:25:21.829Z,100956.12
2023-05-15T16:27:50.012Z,100951.06
2023-05-15T16:30:18.563Z,100955.01
2023-05-15T16:32:48.030Z,100958.71
2023-05-15T16:35:16.521Z,100955.85
2023-05-15T16:37:44.865Z,100954.38
2023-05-15T16:40:13.736Z,100958.19
2023-05-15T16:42:44.431Z,100950.33
2023-05-15T16:45:12.534Z,100952.55
2023-05-15T16:47:41.333Z,100957.98
2023-05-15T16:50:10.490Z,100956.48
2023-05-15T16:52:38.914Z,100955.83
2023-05-15T16:55:07.551Z,100958.14
2023-05-15T16:57:35.854Z,100962.64
2023-05-15T17:00:08.163Z,100957.26
2023-05-15T17:02:37.078Z,100951.58
2023-05-15T17:05:07.040Z,100952.67
2023-05-15T17:07:35.967Z,100949.23
2023-05-15T17:10:05.199Z,100948.19
2023-05-15T17:12:33.695Z,100951.34
2023-05-15T17:15:03.882Z,100951.99
2023-05-15T17:17:32.005Z,100954.02
2023-05-15T17:20:02.614Z,100952.80
2023-05-15T17:22:31.353Z,100947.96
2023-05-15T17:24:59.664Z,100943.17
2023-05-15T17:27:27.928Z,100946.63
2023-05-15T17:29:56.750Z,100947.90
2023-05-15T17:32:26.235Z,100938.31
2023-05-15T17:34:55.611Z,100938.46
2023-05-15T17:37:23.751Z,100932.09
2023-05-15T17:39:53.343Z,100925.89
2023-05-15T17:42:22.516Z,100936.25
2023-05-15T17:44:50.994Z,100939.54
2023-05-15T17:47:19.124Z,100941.45
2023-05-15T17:49:47.866Z,100944.88
2023-05-15T17:52:16.230Z,100943.88
2023-05-15T17:54:44.153Z,100939.34
2023-05-15T17:57:12.185Z,100939.33
2023-05-15T17:59:40.299Z,100944.86
2023-05-15T18:02:08.445Z,100950.09
2023-05-15T18:04:37.764Z,100945.89
2023-05-15T18:07:07.466Z,100946.27
2023-05-15T18:09:35.775Z,100949.49
2023-05-15T18:12:04.772Z,100947.89
2023-05-15T18:14:33.418Z,100951.80
2023-05-15T18:17:02.353Z,100956.40
2023-05-15T18:19:31.008Z,100954.20
2023-05-15T18:22:00.036Z,100945.91
2023-05-15T18:24:28.673Z,100943.73
2023-05-15T18:26:56.957Z,100941.70
2023-05-15T18:29:26.134Z,100947.96
2023-05-15T18:31:54.322Z,100949.89
2023-05-15T18:34:22.588Z,100948.44
2023-05-15T18:36:50.960Z,100948.08
2023-05-15T18:39:19.586Z,100954.70
2023-05-15T18:41:47.993Z,100950.11
2023-05-15T18:44:17.677Z,100954.52
2023-05-15T18:46:45.860Z,100958.58
2023-05-15T18:49:14.064Z,100959.02
2023-05-15T18:51:42.354Z,100962.09
2023-05-15T18:54:12.970Z,100955.06
2023-05-15T18:56:43.276Z,100958.34
2023-05-15T18:59:11.593Z,100960.52
2023-05-15T19:01:40.306Z,100957.56
2023-05-15T19:04:12.213Z,100955.64
2023-05-15T19:06:42.961Z,100959.97
2023-05-15T19:09:11.451Z,100963.42
2023-05-15T19:11:39.718Z,100963.10
2023-05-15T19:14:09.295Z,100968.36
2023-05-15T19:16:37.976Z,100965.73
2023-05-15T19:19:06.378Z,100968.08
2023-05-15T19:21:34.467Z,100969.23
2023-05-15T19:24:02.571Z,100967.43
2023-05-15T19:26:30.820Z,100960.83
2023-05-15T19:28:58.899Z,100967.80
2023-05-15T19:31:32.016Z,100973.41
2023-05-15T19:34:00.876Z,100976.11
2023-05-15T19:36:28.975Z,100978.11
2023-05-15T19:38:57.581Z,100975.23
2023-05-15T19:41:25.762Z,100980.80
2023-05-15T19:43:53.895Z,100984.27
2023-05-15T19:46:22.033Z,100988.80
2023-05-15T19:48:50.565Z,100984.55
2023-05-15T19:51:19.170Z,100984.77
2023-05-15T19:53:48.879Z,100983.37
2023-05-15T19:56:20.304Z,100989.31
2023-05-15T19:58:48.936Z,100987.71
2023-05-15T20:01:18.419Z,100987.73
2023-05-15T20:07:38.941Z,100985.27
2023-05-15T20:10:08.327Z,100988.86
2023-05-15T20:12:37.512Z,100985.65
2023-05-15T20:15:06.830Z,100989.42
2023-05-15T20:17:35.614Z,100990.52
2023-05-15T20:20:05.663Z,100989.27
2023-05-15T20:22:33.893Z,100990.35
2023-05-15T20:25:02.787Z,100993.94
2023-05-15T20:27:32.435Z,100989.99
2023-05-15T20:30:03.305Z,100988.20
2023-05-15T20:32:33.094Z,100995.61
2023-05-15T20:35:03.089Z,100995.27
2023-05-15T20:37:32.719Z,101000.48
2023-05-15T20:40:01.184Z,101001.05
2023-05-15T20:42:30.437Z,101001.05
2023-05-15T20:44:59.538Z,100996.92
2023-05-15T20:47:28.607Z,100996.21
2023-05-15T20:49:57.248Z,100995.33
2023-05-15T20:52:26.197Z,100997.15
2023-05-15T20:54:54.933Z,100997.89
2023-05-15T20:57:23.844Z,101000.60
2023-05-15T20:59:51.973Z,101001.68
2023-05-15T21:02:20.052Z,101007.61
2023-05-15T21:04:48.668Z,101002.40
2023-05-15T21:07:16.820Z,101001.73
2023-05-15T21:09:45.980Z,101005.14
2023-05-15T21:12:14.624Z,101009.09
2023-05-15T21:14:42.791Z,101008.20
2023-05-15T21:17:11.055Z,101011.95
2023-05-15T21:19:40.012Z,101011.80
2023-05-15T21:22:09.097Z,101012.34
2023-05-15T21:24:37.853Z,101015.23
2023-05-15T21:27:07.027Z,101014.90
2023-05-15T21:29:35.226Z,101010.98
2023-05-15T21:32:06.927Z,101008.67
2023-05-15T21:34:34.964Z,101005.82
2023-05-15T21:37:04.403Z,100999.52
2023-05-15T21:39:32.610Z,101005.27
2023-05-15T21:42:00.922Z,101006.70
2023-05-15T21:44:29.453Z,101008.86
2023-05-15T21:46:58.589Z,101012.80
2023-05-15T21:49:27.660Z,101016.95
2023-05-15T21:51:56.660Z,101016.77
2023-05-15T21:54:26.624Z,101014.84
2023-05-15T21:56:54.642Z,101015.73
2023-05-15T21:59:22.738Z,101013.02
2023-05-15T22:01:53.203Z,101016.27
2023-05-15T22:04:23.142Z,101013.22
2023-05-15T22:06:51.290Z,101017.17
2023-05-15T22:09:21.610Z,101013.95
2023-05-15T22:11:50.438Z,101011.81
2023-05-15T22:14:19.187Z,101015.94
2023-05-15T22:16:47.698Z,101014.36
2023-05-15T22:19:31.604Z,101011.14
2023-05-15T22:22:02.592Z,101011.31
2023-05-15T22:24:31.187Z,101010.98
2023-05-15T22:26:59.839Z,101001.49
2023-05-15T22:29:28.038Z,100994.34
2023-05-15T22:31:56.667Z,100992.91
2023-05-15T22:34:26.443Z,100992.05
2023-05-15T22:36:56.132Z,100985.99
2023-05-15T22:39:24.176Z,100981.70
2023-05-15T22:41:52.217Z,100984.04
2023-05-15T22:44:21.548Z,100984.40
2023-05-15T22:46:50.231Z,100985.14
2023-05-15T22:49:19.430Z,100981.92
2023-05-15T22:51:48.450Z,100982.12
2023-05-15T22:54:17.413Z,100984.60
2023-05-15T22:56:46.634Z,100976.91
2023-05-15T22:59:16.060Z,100972.27
2023-05-15T23:01:45.629Z,100973.36
2023-05-15T23:04:14.238Z,100970.70
2023-05-15T23:06:43.035Z,100969.30
2023-05-15T23:09:11.134Z,100963.41
2023-05-15T23:11:40.025Z,100965.02
2023-05-15T23:14:08.979Z,100963.96
2023-05-15T23:16:37.723Z,100959.50
2023-05-15T23:19:06.042Z,100961.84
2023-05-15T23:21:34.880Z,100957.02
2023-05-15T23:24:03.601Z,100958.46
2023-05-15T23:26:32.247Z,100951.31
2023-05-15T23:29:01.046Z,100946.48
2023-05-15T23:31:29.780Z,100943.11
2023-05-15T23:33:58.659Z,100937.77
2023-05-15T23:36:27.274Z,100933.83
2023-05-15T23:38:55.471Z,100931.88
2023-05-15T23:41:24.580Z,100931.71
2023-05-15T23:43:54.323Z,100928.86
2023-05-15T23:46:22.454Z,100928.91
2023-05-15T23:48:50.963Z,100933.08
2023-05-15T23:51:20.137Z,100931.51
2023-05-15T23:53:49.605Z,100934.76
2023-05-15T23:56:17.630Z,100930.48
2023-05-15T23:58:46.435Z,100931.40
